Manti, Utah
Current Conditions -  °F | °C
As of 8:55 AM on Sunday 23 Nov 2014 (Local Time) from KDTA Reporting Station
Clear Clear  
Wind Chill: -5°   Ceiling: Unl
Heat Index:   Visibility: 10mi
Dew Point: -5°   Wind: 12mph
Humidity: 71%   Direction: 330°NNW
Pressure: 30.23"   Gusts: NA
Location:  39.27°N, 111.64°W
Report Text: KDTA 231555Z AUTO 33010KT 10SM CLR 00/M05 A3023 RMK AO1 T10031050
Loading
Personal Weather Stations






























Interactive Weather Map New forecast layout! Learn more

10-Day Weather Forecast

Advertisements
Track Severe Weather on mobile